createdAt,value
2023-01-11T00:01:53.052Z,7.42
2023-01-11T00:04:31.423Z,7.28
2023-01-11T00:07:00.467Z,7.34
2023-01-11T00:09:33.517Z,7.38
2023-01-11T00:12:02.632Z,7.19
2023-01-11T00:14:34.418Z,7.15
2023-01-11T00:17:07.851Z,7.26
2023-01-11T00:19:39.750Z,7.16
2023-01-11T00:22:10.427Z,7.18
2023-01-11T00:24:41.332Z,7.22
2023-01-11T00:27:13.023Z,7.00
2023-01-11T00:29:42.585Z,6.92
2023-01-11T00:32:12.147Z,6.93
2023-01-11T00:34:45.556Z,6.98
2023-01-11T00:37:14.731Z,7.16
2023-01-11T00:39:53.663Z,7.18
2023-01-11T00:42:43.907Z,7.01
2023-01-11T00:45:32.929Z,7.00
2023-01-11T00:48:12.301Z,6.88
2023-01-11T00:50:49.736Z,6.87
2023-01-11T00:53:20.928Z,6.84
2023-01-11T00:55:56.512Z,6.92
2023-01-11T00:58:35.167Z,6.82
2023-01-11T01:01:10.322Z,6.78
2023-01-11T01:03:38.997Z,6.80
2023-01-11T01:06:12.045Z,6.84
2023-01-11T01:08:42.722Z,6.87
2023-01-11T01:11:13.473Z,6.88
2023-01-11T01:13:59.867Z,6.87
2023-01-11T01:16:28.656Z,6.55
2023-01-11T01:19:03.686Z,6.66
2023-01-11T01:21:34.179Z,6.52
2023-01-11T01:24:05.930Z,6.56
2023-01-11T01:26:36.412Z,6.47
2023-01-11T01:29:16.137Z,6.44
2023-01-11T01:31:50.503Z,6.39
2023-01-11T01:34:21.335Z,6.25
2023-01-11T01:36:49.572Z,6.23
2023-01-11T01:39:29.007Z,5.88
2023-01-11T01:42:06.822Z,6.03
2023-01-11T01:45:10.270Z,6.08
2023-01-11T01:47:46.955Z,6.09
2023-01-11T01:50:25.537Z,6.02
2023-01-11T01:53:15.268Z,5.67
2023-01-11T01:55:55.631Z,5.96
2023-01-11T01:58:29.746Z,6.05
2023-01-11T02:01:27.637Z,6.12
2023-01-11T02:04:01.520Z,5.85
2023-01-11T02:06:34.391Z,5.94
2023-01-11T02:09:06.222Z,5.77
2023-01-11T02:11:43.388Z,5.98
2023-01-11T02:14:22.934Z,5.89
2023-01-11T02:16:54.864Z,5.73
2023-01-11T02:19:36.520Z,5.86
2023-01-11T02:22:41.285Z,5.71
2023-01-11T02:25:49.603Z,5.53
2023-01-11T02:28:27.294Z,5.87
2023-01-11T02:31:04.695Z,5.74
2023-01-11T02:33:42.371Z,5.69
2023-01-11T02:36:18.123Z,5.75
2023-01-11T02:38:54.751Z,5.79
2023-01-11T02:41:50.378Z,5.71
2023-01-11T02:44:49.304Z,5.69
2023-01-11T02:47:22.885Z,5.55
2023-01-11T02:50:00.035Z,5.55
2023-01-11T02:52:34.664Z,5.71
2023-01-11T02:55:05.390Z,5.63
2023-01-11T02:57:38.967Z,5.67
2023-01-11T03:00:15.451Z,5.91
2023-01-11T03:02:44.789Z,5.60
2023-01-11T03:05:14.799Z,5.74
2023-01-11T03:07:58.329Z,5.79
2023-01-11T03:10:37.912Z,5.93
2023-01-11T03:13:14.792Z,5.82
2023-01-11T03:16:18.595Z,5.63
2023-01-11T03:18:55.567Z,5.75
2023-01-11T03:21:32.334Z,5.74
2023-01-11T03:24:09.072Z,5.78
2023-01-11T03:26:46.318Z,5.63
2023-01-11T03:29:29.595Z,5.53
2023-01-11T03:32:09.158Z,5.75
2023-01-11T03:34:48.410Z,5.59
2023-01-11T03:37:26.832Z,5.71
2023-01-11T03:40:03.835Z,5.67
2023-01-11T03:43:04.018Z,5.54
2023-01-11T03:45:37.830Z,5.51
2023-01-11T03:48:15.972Z,5.56
2023-01-11T03:50:53.674Z,5.35
2023-01-11T03:53:34.743Z,5.61
2023-01-11T03:56:07.191Z,5.44
2023-01-11T03:58:44.445Z,5.46
2023-01-11T04:01:15.003Z,5.81
2023-01-11T04:03:51.873Z,5.74
2023-01-11T04:06:22.842Z,5.68
2023-01-11T04:08:52.695Z,5.68
2023-01-11T04:11:30.503Z,5.77
2023-01-11T04:14:02.108Z,5.82
2023-01-11T04:16:34.083Z,5.76
2023-01-11T04:19:14.940Z,5.69
2023-01-11T04:21:49.851Z,5.47
2023-01-11T04:24:18.802Z,5.26
2023-01-11T04:26:50.624Z,5.50
2023-01-11T04:29:27.780Z,5.52
2023-01-11T04:31:56.788Z,5.44
2023-01-11T04:34:25.690Z,5.28
2023-01-11T04:37:01.237Z,5.25
2023-01-11T04:39:32.737Z,5.16
2023-01-11T04:42:18.993Z,5.10
2023-01-11T04:44:56.283Z,5.16
2023-01-11T04:47:33.558Z,5.19
2023-01-11T04:50:05.774Z,5.28
2023-01-11T04:52:41.784Z,5.22
2023-01-11T04:55:17.112Z,5.21
2023-01-11T04:57:54.372Z,5.33
2023-01-11T05:00:23.609Z,5.23
2023-01-11T05:02:54.541Z,5.10
2023-01-11T05:05:30.873Z,5.19
2023-01-11T05:08:08.648Z,5.11
2023-01-11T05:10:38.260Z,5.05
2023-01-11T05:13:08.780Z,5.09
2023-01-11T05:15:42.805Z,5.05
2023-01-11T05:18:12.078Z,5.22
2023-01-11T05:20:46.431Z,5.24
2023-01-11T05:23:18.900Z,4.96
2023-01-11T05:25:53.628Z,4.91
2023-01-11T05:28:24.363Z,4.89
2023-01-11T05:31:02.302Z,4.77
2023-01-11T05:33:30.869Z,4.84
2023-01-11T05:36:00.775Z,4.59
2023-01-11T05:38:31.557Z,4.59
2023-01-11T05:41:10.482Z,4.64
2023-01-11T05:44:01.207Z,4.59
2023-01-11T05:46:31.639Z,4.72
2023-01-11T05:49:01.641Z,4.90
2023-01-11T05:51:38.240Z,4.62
2023-01-11T05:54:12.900Z,4.60
2023-01-11T05:56:51.089Z,4.78
2023-01-11T05:59:19.953Z,4.73
2023-01-11T06:01:52.163Z,4.44
2023-01-11T06:04:35.060Z,4.54
2023-01-11T06:07:04.415Z,4.52
2023-01-11T06:09:36.627Z,4.59
2023-01-11T06:12:08.333Z,4.65
2023-01-11T06:14:39.406Z,4.64
2023-01-11T06:17:08.691Z,4.63
2023-01-11T06:19:39.780Z,4.40
2023-01-11T06:22:13.178Z,4.38
2023-01-11T06:24:46.591Z,4.38
2023-01-11T06:27:19.111Z,4.39
2023-01-11T06:29:50.323Z,4.32
2023-01-11T06:32:30.149Z,4.53
2023-01-11T06:35:01.897Z,4.55
2023-01-11T06:37:38.478Z,4.43
2023-01-11T06:40:12.280Z,4.36
2023-01-11T06:42:42.899Z,4.41
2023-01-11T06:45:13.016Z,4.46
2023-01-11T06:47:42.177Z,4.37
2023-01-11T06:50:14.936Z,4.35
2023-01-11T06:52:44.351Z,4.47
2023-01-11T06:55:29.410Z,4.47
2023-01-11T06:57:58.192Z,4.43
2023-01-11T07:00:27.896Z,4.55
2023-01-11T07:02:56.965Z,4.47
2023-01-11T07:05:27.837Z,4.32
2023-01-11T07:07:56.960Z,4.29
2023-01-11T07:10:31.329Z,4.28
2023-01-11T07:13:07.320Z,4.12
2023-01-11T07:15:39.101Z,4.23
2023-01-11T07:18:12.136Z,4.17
2023-01-11T07:20:44.381Z,4.36
2023-01-11T07:23:12.978Z,4.47
2023-01-11T07:26:09.048Z,4.34
2023-01-11T07:28:38.538Z,4.19
2023-01-11T07:31:07.450Z,4.42
2023-01-11T07:33:37.655Z,4.35
2023-01-11T07:36:09.094Z,4.40
2023-01-11T07:38:52.349Z,4.52
2023-01-11T07:41:44.349Z,4.64
2023-01-11T07:44:14.041Z,4.55
2023-01-11T07:46:43.064Z,4.70
2023-01-11T07:49:21.214Z,4.66
2023-01-11T07:51:52.094Z,4.45
2023-01-11T07:54:27.136Z,4.63
2023-01-11T07:57:08.580Z,4.65
2023-01-11T07:59:39.944Z,4.67
2023-01-11T08:02:14.195Z,4.76
2023-01-11T08:04:45.420Z,4.69
2023-01-11T08:07:14.622Z,4.83
2023-01-11T08:09:46.253Z,4.50
2023-01-11T08:12:37.053Z,4.58
2023-01-11T08:15:11.673Z,4.62
2023-01-11T08:17:41.265Z,4.76
2023-01-11T08:20:12.641Z,4.95
2023-01-11T08:22:41.735Z,4.89
2023-01-11T08:25:11.474Z,4.57
2023-01-11T08:27:48.029Z,4.65
2023-01-11T08:30:18.229Z,5.06
2023-01-11T08:32:55.937Z,4.94
2023-01-11T08:35:26.689Z,4.79
2023-01-11T08:37:56.341Z,4.66
2023-01-11T08:40:37.517Z,4.85
2023-01-11T08:43:14.409Z,4.76
2023-01-11T08:45:51.265Z,4.80
2023-01-11T08:48:21.136Z,5.10
2023-01-11T08:50:50.161Z,5.17
2023-01-11T08:53:22.194Z,5.31
2023-01-11T08:55:53.648Z,5.27
2023-01-11T08:58:27.491Z,5.26
2023-01-11T09:01:10.209Z,5.36
2023-01-11T09:03:42.020Z,5.15
2023-01-11T09:06:11.572Z,5.21
2023-01-11T09:08:43.887Z,5.44
2023-01-11T09:11:29.468Z,5.60
2023-01-11T09:14:21.707Z,5.69
2023-01-11T09:16:52.554Z,5.65
2023-01-11T09:19:24.670Z,5.76
2023-01-11T09:21:53.546Z,5.92
2023-01-11T09:24:32.220Z,5.91
2023-01-11T09:27:01.952Z,6.02
2023-01-11T09:29:34.386Z,5.87
2023-01-11T09:32:04.345Z,6.10
2023-01-11T09:34:35.077Z,6.03
2023-01-11T09:37:06.938Z,6.26
2023-01-11T09:39:46.305Z,6.25
2023-01-11T09:42:36.596Z,5.99
2023-01-11T09:45:18.869Z,6.09
2023-01-11T09:48:03.616Z,6.17
2023-01-11T09:50:45.156Z,6.21
2023-01-11T09:53:23.689Z,6.27
2023-01-11T09:55:58.445Z,6.34
2023-01-11T09:58:51.493Z,6.38
2023-01-11T10:01:34.499Z,6.37
2023-01-11T10:04:52.284Z,6.56
2023-01-11T10:14:05.335Z,6.61
2023-01-11T10:18:42.989Z,6.62
2023-01-11T10:19:57.636Z,6.54
2023-01-11T10:22:32.867Z,6.76
2023-01-11T10:25:11.589Z,6.68
2023-01-11T10:27:43.285Z,6.77
2023-01-11T10:30:41.823Z,6.79
2023-01-11T10:33:30.355Z,6.93
2023-01-11T10:36:37.509Z,6.80
2023-01-11T10:39:33.100Z,6.84
2023-01-11T10:42:10.468Z,6.89
2023-01-11T10:44:42.552Z,6.96
2023-01-11T10:47:17.493Z,7.11
2023-01-11T10:49:57.264Z,7.13
2023-01-11T10:52:35.189Z,7.12
2023-01-11T10:55:18.085Z,7.35
2023-01-11T10:58:04.876Z,7.07
2023-01-11T11:00:37.732Z,7.12
2023-01-11T11:06:27.359Z,7.27
2023-01-11T11:09:08.297Z,7.39
2023-01-11T11:11:47.163Z,7.21
2023-01-11T11:14:28.755Z,7.26
2023-01-11T11:17:05.553Z,7.21
2023-01-11T11:19:35.118Z,7.18
2023-01-11T11:22:21.659Z,7.25
2023-01-11T11:24:56.751Z,7.23
2023-01-11T11:27:27.968Z,7.46
2023-01-11T11:29:58.638Z,7.35
2023-01-11T11:32:36.756Z,7.30
2023-01-11T11:35:13.941Z,7.43
2023-01-11T11:37:59.853Z,7.44
2023-01-11T11:40:38.384Z,7.32
2023-01-11T11:43:23.138Z,7.55
2023-01-11T11:45:53.339Z,7.42
2023-01-11T11:48:34.577Z,7.56
2023-01-11T11:51:06.585Z,7.63
2023-01-11T11:53:43.788Z,7.69
2023-01-11T11:56:25.187Z,7.77
2023-01-11T11:58:57.482Z,7.67
2023-01-11T12:01:30.368Z,7.71
2023-01-11T12:04:02.909Z,7.80
2023-01-11T12:06:41.462Z,7.75
2023-01-11T12:09:32.720Z,7.81
2023-01-11T12:12:15.662Z,7.87
2023-01-11T12:14:48.393Z,8.02
2023-01-11T12:17:25.074Z,8.22
2023-01-11T12:19:53.403Z,7.84
2023-01-11T12:22:29.481Z,7.86
2023-01-11T12:25:24.388Z,7.61
2023-01-11T12:28:01.971Z,7.72
2023-01-11T12:30:36.323Z,7.70
2023-01-11T12:33:30.063Z,7.82
2023-01-11T12:36:06.097Z,7.67
2023-01-11T12:38:48.834Z,7.70
2023-01-11T12:41:50.682Z,7.71
2023-01-11T12:44:48.999Z,7.88
2023-01-11T12:47:59.944Z,7.74
2023-01-11T12:50:35.549Z,7.64
2023-01-11T12:53:22.264Z,7.79
2023-01-11T12:56:03.383Z,7.69
2023-01-11T12:58:41.752Z,7.68
2023-01-11T13:01:41.596Z,7.71
2023-01-11T13:04:47.171Z,7.65
2023-01-11T13:07:33.235Z,7.50
2023-01-11T13:10:22.910Z,7.60
2023-01-11T13:12:57.423Z,7.69
2023-01-11T13:15:51.525Z,7.70
2023-01-11T13:18:31.270Z,7.69
2023-01-11T13:21:08.942Z,7.75
2023-01-11T13:23:46.221Z,7.78
2023-01-11T13:26:24.013Z,7.68
2023-01-11T13:28:57.529Z,7.69
2023-01-11T13:31:37.535Z,7.62
2023-01-11T13:34:16.158Z,7.79
2023-01-11T13:36:58.446Z,7.69
2023-01-11T13:39:37.243Z,7.91
2023-01-11T13:42:14.932Z,7.68
2023-01-11T13:44:49.473Z,7.70
2023-01-11T13:47:24.899Z,7.81
2023-01-11T13:49:59.509Z,7.91
2023-01-11T13:52:42.440Z,7.92
2023-01-11T13:55:24.870Z,7.75
2023-01-11T13:57:59.125Z,7.84
2023-01-11T14:00:33.027Z,7.64
2023-01-11T14:03:12.684Z,7.70
2023-01-11T14:05:47.091Z,7.59
2023-01-11T14:08:35.287Z,7.65
2023-01-11T14:11:14.365Z,7.70
2023-01-11T14:14:26.470Z,7.73
2023-01-11T14:17:13.119Z,7.55
2023-01-11T14:19:49.777Z,7.63
2023-01-11T14:22:26.584Z,7.64
2023-01-11T14:24:59.994Z,7.61
2023-01-11T14:27:58.480Z,7.79
2023-01-11T14:30:42.103Z,7.62
2023-01-11T14:33:47.235Z,7.62
2023-01-11T14:36:49.794Z,7.62
2023-01-11T14:40:05.718Z,7.56
2023-01-11T14:43:06.172Z,7.64
2023-01-11T14:45:55.064Z,7.63
2023-01-11T14:48:36.201Z,7.57
2023-01-11T14:51:34.028Z,7.59
2023-01-11T14:54:17.850Z,7.52
2023-01-11T14:56:55.740Z,7.46
2023-01-11T14:59:37.131Z,7.51
2023-01-11T15:02:19.937Z,7.46
2023-01-11T15:05:08.612Z,7.41
2023-01-11T15:07:43.145Z,7.53
2023-01-11T15:11:08.602Z,7.42
2023-01-11T15:13:49.505Z,7.40
2023-01-11T15:16:38.894Z,7.29
2023-01-11T15:19:11.525Z,7.42
2023-01-11T15:21:42.700Z,7.49
2023-01-11T15:24:31.474Z,7.47
2023-01-11T15:27:02.659Z,7.41
2023-01-11T15:29:36.538Z,7.40
2023-01-11T15:32:21.295Z,7.35
2023-01-11T15:34:53.649Z,7.41
2023-01-11T15:37:44.144Z,7.34
2023-01-11T15:40:30.568Z,7.47
2023-01-11T15:43:48.535Z,7.48
2023-01-11T15:46:54.111Z,7.38
2023-01-11T15:49:59.898Z,7.35
2023-01-11T15:53:11.005Z,7.52
2023-01-11T15:56:29.135Z,7.60
2023-01-11T15:59:32.135Z,7.47
2023-01-11T16:02:31.196Z,7.45
2023-01-11T16:05:05.856Z,7.68
2023-01-11T16:07:40.992Z,7.36
2023-01-11T16:10:38.285Z,7.48
2023-01-11T16:13:28.693Z,7.37
2023-01-11T16:16:07.996Z,7.53
2023-01-11T16:18:42.208Z,7.35
2023-01-11T16:21:15.499Z,7.33
2023-01-11T16:23:53.607Z,7.44
2023-01-11T16:26:24.690Z,7.39
2023-01-11T16:28:57.900Z,7.38
2023-01-11T16:31:28.256Z,7.42
2023-01-11T16:34:12.591Z,7.31
2023-01-11T16:36:42.166Z,7.30
2023-01-11T16:39:25.078Z,7.32
2023-01-11T16:41:56.892Z,7.42
2023-01-11T16:44:33.349Z,7.40
2023-01-11T16:47:21.910Z,7.44
2023-01-11T16:50:21.322Z,7.34
2023-01-11T16:52:53.957Z,7.46
2023-01-11T16:55:30.566Z,7.42
2023-01-11T16:58:02.592Z,7.50
2023-01-11T17:00:41.093Z,7.63
2023-01-11T17:03:25.632Z,7.44
2023-01-11T17:06:25.646Z,7.46
2023-01-11T17:08:57.623Z,7.62
2023-01-11T17:11:33.628Z,7.47
2023-01-11T17:14:43.915Z,7.53
2023-01-11T17:17:21.201Z,7.44
2023-01-11T17:19:54.413Z,7.50
2023-01-11T17:22:35.791Z,7.42
2023-01-11T17:25:09.146Z,7.47
2023-01-11T17:27:41.312Z,7.44
2023-01-11T17:30:18.360Z,7.45
2023-01-11T17:32:50.211Z,7.58
2023-01-11T17:35:30.052Z,7.57
2023-01-11T17:38:04.617Z,7.71
2023-01-11T17:40:43.935Z,7.53
2023-01-11T17:43:36.094Z,7.51
2023-01-11T17:46:07.148Z,7.52
2023-01-11T17:48:39.384Z,7.71
2023-01-11T17:51:09.909Z,7.69
2023-01-11T17:53:47.775Z,7.60
2023-01-11T17:56:38.189Z,7.68
2023-01-11T17:59:21.176Z,7.68
2023-01-11T18:02:00.422Z,7.75
2023-01-11T18:04:29.500Z,7.84
2023-01-11T18:07:06.828Z,7.80
2023-01-11T18:09:48.413Z,7.65
2023-01-11T18:12:24.239Z,7.69
2023-01-11T18:15:02.335Z,7.96
2023-01-11T18:17:47.261Z,7.80
2023-01-11T18:20:36.166Z,7.82
2023-01-11T18:23:22.203Z,7.81
2023-01-11T18:26:34.555Z,7.82
2023-01-11T18:29:22.061Z,7.70
2023-01-11T18:31:52.689Z,7.82
2023-01-11T18:34:31.015Z,7.64
2023-01-11T18:37:02.806Z,7.65
2023-01-11T18:39:41.141Z,7.84
2023-01-11T18:42:17.730Z,7.83
2023-01-11T18:44:52.440Z,7.88
2023-01-11T18:47:23.522Z,7.75
2023-01-11T18:49:57.117Z,7.68
2023-01-11T18:52:31.145Z,7.91
2023-01-11T18:55:10.563Z,7.76
2023-01-11T18:57:50.517Z,7.75
2023-01-11T19:00:29.314Z,7.78
2023-01-11T19:03:00.953Z,7.77
2023-01-11T19:05:40.821Z,7.76
2023-01-11T19:08:14.844Z,7.68
2023-01-11T19:10:59.319Z,7.79
2023-01-11T19:13:34.256Z,7.70
2023-01-11T19:16:06.360Z,7.57
2023-01-11T19:18:47.480Z,7.70
2023-01-11T19:21:20.588Z,7.63
2023-01-11T19:23:54.524Z,7.81
2023-01-11T19:26:28.147Z,7.75
2023-01-11T19:29:05.950Z,7.76
2023-01-11T19:31:50.183Z,7.91
2023-01-11T19:34:21.180Z,7.94
2023-01-11T19:36:56.505Z,8.00
2023-01-11T19:39:38.763Z,7.93
2023-01-11T19:42:19.726Z,8.04
2023-01-11T19:45:05.316Z,7.94
2023-01-11T19:47:50.977Z,8.20
2023-01-11T19:50:21.868Z,8.20
2023-01-11T19:53:04.866Z,8.11
2023-01-11T19:55:38.241Z,8.11
2023-01-11T19:58:09.709Z,8.25
2023-01-11T20:00:55.703Z,8.31
2023-01-11T20:03:28.722Z,8.40
2023-01-11T20:06:22.038Z,8.46
2023-01-11T20:08:51.629Z,8.59
2023-01-11T20:11:22.930Z,8.49
2023-01-11T20:13:54.585Z,8.37
2023-01-11T20:16:38.234Z,8.38
2023-01-11T20:19:08.087Z,8.46
2023-01-11T20:21:42.468Z,8.53
2023-01-11T20:24:19.774Z,8.55
2023-01-11T20:26:52.683Z,8.50
2023-01-11T20:29:32.471Z,8.82
2023-01-11T20:32:27.711Z,8.87
2023-01-11T20:34:57.697Z,9.01
2023-01-11T20:37:34.756Z,8.82
2023-01-11T20:40:21.769Z,8.97
2023-01-11T20:42:53.635Z,8.98
2023-01-11T20:45:33.756Z,8.99
2023-01-11T20:48:04.724Z,9.16
2023-01-11T20:50:35.644Z,9.24
2023-01-11T20:53:06.883Z,9.44
2023-01-11T20:55:47.434Z,9.44
2023-01-11T20:58:18.955Z,9.45
2023-01-11T21:00:47.940Z,9.62
2023-01-11T21:03:23.477Z,9.48
2023-01-11T21:05:56.357Z,9.52
2023-01-11T21:08:27.112Z,9.48
2023-01-11T21:11:06.216Z,9.57
2023-01-11T21:13:45.117Z,9.69
2023-01-11T21:16:27.401Z,9.79
2023-01-11T21:19:04.196Z,9.73
2023-01-11T21:21:40.721Z,9.77
2023-01-11T21:24:11.539Z,9.79
2023-01-11T21:26:42.964Z,9.85
2023-01-11T21:29:14.592Z,9.89
2023-01-11T21:31:52.503Z,9.86
2023-01-11T21:34:34.848Z,9.83
2023-01-11T21:37:04.840Z,9.76
2023-01-11T21:39:36.919Z,9.90
2023-01-11T21:42:14.510Z,9.84
2023-01-11T21:44:48.190Z,9.81
2023-01-11T21:47:25.695Z,9.71
2023-01-11T21:50:03.540Z,9.81
2023-01-11T21:52:33.832Z,9.80
2023-01-11T21:55:11.464Z,9.66
2023-01-11T21:57:48.519Z,9.77
2023-01-11T22:00:22.580Z,9.72
2023-01-11T22:02:59.849Z,9.65
2023-01-11T22:05:32.333Z,9.51
2023-01-11T22:08:05.175Z,9.58
2023-01-11T22:10:33.689Z,9.49
2023-01-11T22:13:05.730Z,9.46
2023-01-11T22:15:41.496Z,9.50
2023-01-11T22:18:12.035Z,9.54
2023-01-11T22:20:48.290Z,9.44
2023-01-11T22:23:27.247Z,9.36
2023-01-11T22:25:56.587Z,9.44
2023-01-11T22:28:27.430Z,9.22
2023-01-11T22:30:56.720Z,9.38
2023-01-11T22:33:26.324Z,9.44
2023-01-11T22:35:57.099Z,9.35
2023-01-11T22:38:33.536Z,9.45
2023-01-11T22:41:02.844Z,9.24
2023-01-11T22:43:34.219Z,9.30
2023-01-11T22:46:07.637Z,9.24
2023-01-11T22:48:36.850Z,9.15
2023-01-11T22:51:21.118Z,9.35
2023-01-11T22:53:58.813Z,9.31
2023-01-11T22:56:29.456Z,9.28
2023-01-11T22:59:03.099Z,9.27
2023-01-11T23:01:44.211Z,9.37
2023-01-11T23:04:17.950Z,9.34
2023-01-11T23:07:05.458Z,9.34
2023-01-11T23:09:36.780Z,9.25
2023-01-11T23:12:25.703Z,9.29
2023-01-11T23:14:55.188Z,9.31
2023-01-11T23:17:24.691Z,9.28
2023-01-11T23:19:55.925Z,9.32
2023-01-11T23:22:34.071Z,9.43
2023-01-11T23:25:11.501Z,9.35
2023-01-11T23:27:43.361Z,9.39
2023-01-11T23:30:13.490Z,9.44
2023-01-11T23:32:55.281Z,9.42
2023-01-11T23:35:26.841Z,9.50
2023-01-11T23:37:56.924Z,9.47
2023-01-11T23:40:32.127Z,9.49
2023-01-11T23:43:00.784Z,9.56
2023-01-11T23:45:30.306Z,9.53
2023-01-11T23:47:59.824Z,9.61
2023-01-11T23:50:28.146Z,9.46
2023-01-11T23:53:09.482Z,9.46
2023-01-11T23:55:41.643Z,9.50
2023-01-11T23:58:13.350Z,9.51
